sensor_id;sensor_type;location;lat;lon;timestamp;P1;durP1;ratioP1;P2;durP2;ratioP2
3561;SDS011;1795;52.074;4.754;2022-12-18T00:01:28;77.97;;;34.03;;
3561;SDS011;1795;52.074;4.754;2022-12-18T00:03:59;74.07;;;32.40;;
3561;SDS011;1795;52.074;4.754;2022-12-18T00:06:32;76.17;;;33.30;;
3561;SDS011;1795;52.074;4.754;2022-12-18T00:09:02;73.60;;;33.30;;
3561;SDS011;1795;52.074;4.754;2022-12-18T00:11:30;76.30;;;32.33;;
3561;SDS011;1795;52.074;4.754;2022-12-18T00:13:59;75.03;;;32.47;;
3561;SDS011;1795;52.074;4.754;2022-12-18T00:16:27;71.35;;;31.40;;
3561;SDS011;1795;52.074;4.754;2022-12-18T00:18:59;71.20;;;32.58;;
3561;SDS011;1795;52.074;4.754;2022-12-18T00:21:28;73.25;;;32.08;;
3561;SDS011;1795;52.074;4.754;2022-12-18T00:23:58;73.50;;;32.20;;
3561;SDS011;1795;52.074;4.754;2022-12-18T00:26:29;73.15;;;31.17;;
3561;SDS011;1795;52.074;4.754;2022-12-18T00:28:59;80.18;;;31.25;;
3561;SDS011;1795;52.074;4.754;2022-12-18T00:31:30;73.32;;;32.33;;
3561;SDS011;1795;52.074;4.754;2022-12-18T00:33:59;74.20;;;32.70;;
3561;SDS011;1795;52.074;4.754;2022-12-18T00:36:28;72.70;;;32.38;;
3561;SDS011;1795;52.074;4.754;2022-12-18T00:38:58;76.05;;;31.95;;
3561;SDS011;1795;52.074;4.754;2022-12-18T00:41:27;69.18;;;31.52;;
3561;SDS011;1795;52.074;4.754;2022-12-18T00:44:14;71.15;;;31.73;;
3561;SDS011;1795;52.074;4.754;2022-12-18T00:46:44;69.45;;;31.00;;
3561;SDS011;1795;52.074;4.754;2022-12-18T00:49:13;72.95;;;33.03;;
3561;SDS011;1795;52.074;4.754;2022-12-18T00:51:41;73.43;;;30.80;;
3561;SDS011;1795;52.074;4.754;2022-12-18T00:54:10;72.43;;;33.22;;
3561;SDS011;1795;52.074;4.754;2022-12-18T00:56:40;67.57;;;30.25;;
3561;SDS011;1795;52.074;4.754;2022-12-18T00:59:15;72.57;;;30.40;;
3561;SDS011;1795;52.074;4.754;2022-12-18T01:01:43;74.13;;;30.88;;
3561;SDS011;1795;52.074;4.754;2022-12-18T01:04:11;67.97;;;30.83;;
3561;SDS011;1795;52.074;4.754;2022-12-18T01:06:40;66.68;;;29.40;;
3561;SDS011;1795;52.074;4.754;2022-12-18T01:09:07;66.95;;;28.77;;
3561;SDS011;1795;52.074;4.754;2022-12-18T01:11:35;64.10;;;30.75;;
3561;SDS011;1795;52.074;4.754;2022-12-18T01:14:05;67.22;;;28.65;;
3561;SDS011;1795;52.074;4.754;2022-12-18T01:16:33;60.90;;;30.17;;
3561;SDS011;1795;52.074;4.754;2022-12-18T01:19:01;58.50;;;29.63;;
3561;SDS011;1795;52.074;4.754;2022-12-18T01:21:29;62.50;;;28.73;;
3561;SDS011;1795;52.074;4.754;2022-12-18T01:23:57;61.53;;;29.33;;
3561;SDS011;1795;52.074;4.754;2022-12-18T01:26:26;61.63;;;29.00;;
3561;SDS011;1795;52.074;4.754;2022-12-18T01:28:55;65.50;;;30.27;;
3561;SDS011;1795;52.074;4.754;2022-12-18T01:31:26;68.45;;;31.30;;
3561;SDS011;1795;52.074;4.754;2022-12-18T01:33:56;61.58;;;28.70;;
3561;SDS011;1795;52.074;4.754;2022-12-18T01:36:25;67.20;;;31.25;;
3561;SDS011;1795;52.074;4.754;2022-12-18T01:38:54;66.28;;;30.23;;
3561;SDS011;1795;52.074;4.754;2022-12-18T01:41:25;61.70;;;28.52;;
3561;SDS011;1795;52.074;4.754;2022-12-18T01:47:22;64.83;;;29.60;;
3561;SDS011;1795;52.074;4.754;2022-12-18T01:49:52;68.97;;;31.13;;
3561;SDS011;1795;52.074;4.754;2022-12-18T01:52:21;58.28;;;28.55;;
3561;SDS011;1795;52.074;4.754;2022-12-18T01:54:51;62.83;;;28.33;;
3561;SDS011;1795;52.074;4.754;2022-12-18T01:57:21;66.93;;;27.97;;
3561;SDS011;1795;52.074;4.754;2022-12-18T01:59:51;60.88;;;29.05;;
3561;SDS011;1795;52.074;4.754;2022-12-18T02:02:25;62.83;;;28.50;;
3561;SDS011;1795;52.074;4.754;2022-12-18T02:04:55;58.03;;;27.25;;
3561;SDS011;1795;52.074;4.754;2022-12-18T02:07:24;58.75;;;29.27;;
3561;SDS011;1795;52.074;4.754;2022-12-18T02:10:03;54.80;;;27.07;;
3561;SDS011;1795;52.074;4.754;2022-12-18T02:12:40;53.60;;;27.88;;
3561;SDS011;1795;52.074;4.754;2022-12-18T02:15:13;59.30;;;29.40;;
3561;SDS011;1795;52.074;4.754;2022-12-18T02:17:48;59.25;;;28.45;;
3561;SDS011;1795;52.074;4.754;2022-12-18T02:20:23;55.47;;;26.65;;
3561;SDS011;1795;52.074;4.754;2022-12-18T02:23:00;53.10;;;26.50;;
3561;SDS011;1795;52.074;4.754;2022-12-18T02:25:40;49.17;;;25.13;;
3561;SDS011;1795;52.074;4.754;2022-12-18T02:28:27;53.37;;;27.20;;
3561;SDS011;1795;52.074;4.754;2022-12-18T02:30:59;51.53;;;25.80;;
3561;SDS011;1795;52.074;4.754;2022-12-18T02:33:30;52.35;;;25.83;;
3561;SDS011;1795;52.074;4.754;2022-12-18T02:35:59;54.83;;;27.40;;
3561;SDS011;1795;52.074;4.754;2022-12-18T02:38:28;51.42;;;26.50;;
3561;SDS011;1795;52.074;4.754;2022-12-18T02:40:58;51.42;;;25.40;;
3561;SDS011;1795;52.074;4.754;2022-12-18T02:43:29;51.15;;;26.00;;
3561;SDS011;1795;52.074;4.754;2022-12-18T02:45:58;49.00;;;26.52;;
3561;SDS011;1795;52.074;4.754;2022-12-18T02:48:27;48.30;;;25.05;;
3561;SDS011;1795;52.074;4.754;2022-12-18T02:50:59;51.40;;;26.15;;
3561;SDS011;1795;52.074;4.754;2022-12-18T02:53:33;50.72;;;26.35;;
3561;SDS011;1795;52.074;4.754;2022-12-18T02:56:09;48.83;;;25.40;;
3561;SDS011;1795;52.074;4.754;2022-12-18T02:58:45;50.10;;;25.58;;
3561;SDS011;1795;52.074;4.754;2022-12-18T03:01:21;45.45;;;25.25;;
3561;SDS011;1795;52.074;4.754;2022-12-18T03:03:55;48.20;;;26.58;;
3561;SDS011;1795;52.074;4.754;2022-12-18T03:06:27;48.53;;;24.60;;
3561;SDS011;1795;52.074;4.754;2022-12-18T03:08:59;43.10;;;23.67;;
3561;SDS011;1795;52.074;4.754;2022-12-18T03:11:32;44.25;;;25.10;;
3561;SDS011;1795;52.074;4.754;2022-12-18T03:14:20;46.45;;;25.60;;
3561;SDS011;1795;52.074;4.754;2022-12-18T03:16:51;43.60;;;24.13;;
3561;SDS011;1795;52.074;4.754;2022-12-18T03:19:22;47.17;;;25.20;;
3561;SDS011;1795;52.074;4.754;2022-12-18T03:21:53;49.65;;;26.42;;
3561;SDS011;1795;52.074;4.754;2022-12-18T03:24:23;45.75;;;24.17;;
3561;SDS011;1795;52.074;4.754;2022-12-18T03:26:54;46.63;;;24.23;;
3561;SDS011;1795;52.074;4.754;2022-12-18T03:29:27;43.60;;;24.27;;
3561;SDS011;1795;52.074;4.754;2022-12-18T03:32:01;46.13;;;25.85;;
3561;SDS011;1795;52.074;4.754;2022-12-18T03:34:39;48.10;;;24.70;;
3561;SDS011;1795;52.074;4.754;2022-12-18T03:37:09;44.63;;;24.92;;
3561;SDS011;1795;52.074;4.754;2022-12-18T03:39:37;48.78;;;25.23;;
3561;SDS011;1795;52.074;4.754;2022-12-18T03:42:06;46.50;;;23.65;;
3561;SDS011;1795;52.074;4.754;2022-12-18T03:44:40;49.13;;;25.25;;
3561;SDS011;1795;52.074;4.754;2022-12-18T03:47:13;51.43;;;25.60;;
3561;SDS011;1795;52.074;4.754;2022-12-18T03:49:45;50.63;;;26.88;;
3561;SDS011;1795;52.074;4.754;2022-12-18T03:52:18;56.88;;;27.60;;
3561;SDS011;1795;52.074;4.754;2022-12-18T03:54:52;51.30;;;25.67;;
3561;SDS011;1795;52.074;4.754;2022-12-18T03:57:24;54.00;;;27.33;;
3561;SDS011;1795;52.074;4.754;2022-12-18T03:59:57;55.42;;;27.90;;
3561;SDS011;1795;52.074;4.754;2022-12-18T04:02:30;55.58;;;28.08;;
3561;SDS011;1795;52.074;4.754;2022-12-18T04:05:01;57.95;;;28.38;;
3561;SDS011;1795;52.074;4.754;2022-12-18T04:07:32;58.25;;;29.17;;
3561;SDS011;1795;52.074;4.754;2022-12-18T04:10:00;55.50;;;27.85;;
3561;SDS011;1795;52.074;4.754;2022-12-18T04:12:30;57.90;;;28.05;;
3561;SDS011;1795;52.074;4.754;2022-12-18T04:14:59;60.75;;;28.98;;
3561;SDS011;1795;52.074;4.754;2022-12-18T04:17:28;58.33;;;28.15;;
3561;SDS011;1795;52.074;4.754;2022-12-18T04:19:56;56.25;;;27.83;;
3561;SDS011;1795;52.074;4.754;2022-12-18T04:22:24;58.13;;;27.98;;
3561;SDS011;1795;52.074;4.754;2022-12-18T04:24:52;58.67;;;30.67;;
3561;SDS011;1795;52.074;4.754;2022-12-18T04:27:20;63.90;;;31.50;;
3561;SDS011;1795;52.074;4.754;2022-12-18T04:29:48;60.33;;;29.33;;
3561;SDS011;1795;52.074;4.754;2022-12-18T04:32:18;59.88;;;30.40;;
3561;SDS011;1795;52.074;4.754;2022-12-18T04:34:46;55.13;;;29.08;;
3561;SDS011;1795;52.074;4.754;2022-12-18T04:37:14;60.72;;;28.55;;
3561;SDS011;1795;52.074;4.754;2022-12-18T04:39:42;57.72;;;27.95;;
3561;SDS011;1795;52.074;4.754;2022-12-18T04:42:10;62.75;;;29.02;;
3561;SDS011;1795;52.074;4.754;2022-12-18T04:44:38;59.67;;;29.00;;
3561;SDS011;1795;52.074;4.754;2022-12-18T04:47:06;67.15;;;29.73;;
3561;SDS011;1795;52.074;4.754;2022-12-18T04:49:35;61.33;;;28.35;;
3561;SDS011;1795;52.074;4.754;2022-12-18T04:52:03;57.40;;;30.02;;
3561;SDS011;1795;52.074;4.754;2022-12-18T04:54:31;66.07;;;29.88;;
3561;SDS011;1795;52.074;4.754;2022-12-18T04:56:59;65.43;;;30.88;;
3561;SDS011;1795;52.074;4.754;2022-12-18T04:59:27;59.22;;;29.40;;
3561;SDS011;1795;52.074;4.754;2022-12-18T05:01:55;62.28;;;29.75;;
3561;SDS011;1795;52.074;4.754;2022-12-18T05:04:24;63.22;;;29.23;;
3561;SDS011;1795;52.074;4.754;2022-12-18T05:06:53;56.90;;;27.10;;
3561;SDS011;1795;52.074;4.754;2022-12-18T05:09:21;58.15;;;28.63;;
3561;SDS011;1795;52.074;4.754;2022-12-18T05:11:49;60.65;;;28.15;;
3561;SDS011;1795;52.074;4.754;2022-12-18T05:14:18;56.10;;;28.13;;
3561;SDS011;1795;52.074;4.754;2022-12-18T05:16:46;55.75;;;27.17;;
3561;SDS011;1795;52.074;4.754;2022-12-18T05:19:14;56.47;;;27.15;;
3561;SDS011;1795;52.074;4.754;2022-12-18T05:21:41;47.80;;;24.58;;
3561;SDS011;1795;52.074;4.754;2022-12-18T05:24:12;52.33;;;26.63;;
3561;SDS011;1795;52.074;4.754;2022-12-18T05:26:41;49.08;;;24.77;;
3561;SDS011;1795;52.074;4.754;2022-12-18T05:29:09;54.55;;;27.85;;
3561;SDS011;1795;52.074;4.754;2022-12-18T05:31:39;50.80;;;25.45;;
3561;SDS011;1795;52.074;4.754;2022-12-18T05:34:08;51.63;;;25.80;;
3561;SDS011;1795;52.074;4.754;2022-12-18T05:36:36;45.67;;;25.67;;
3561;SDS011;1795;52.074;4.754;2022-12-18T05:39:04;46.50;;;25.03;;
3561;SDS011;1795;52.074;4.754;2022-12-18T05:41:34;49.08;;;25.95;;
3561;SDS011;1795;52.074;4.754;2022-12-18T05:44:02;52.10;;;25.67;;
3561;SDS011;1795;52.074;4.754;2022-12-18T05:46:31;53.33;;;27.02;;
3561;SDS011;1795;52.074;4.754;2022-12-18T05:48:59;46.83;;;25.73;;
3561;SDS011;1795;52.074;4.754;2022-12-18T05:51:27;46.72;;;24.27;;
3561;SDS011;1795;52.074;4.754;2022-12-18T05:53:55;46.78;;;24.35;;
3561;SDS011;1795;52.074;4.754;2022-12-18T05:56:23;46.33;;;24.25;;
3561;SDS011;1795;52.074;4.754;2022-12-18T05:58:53;49.15;;;24.15;;
3561;SDS011;1795;52.074;4.754;2022-12-18T06:01:22;43.25;;;23.52;;
3561;SDS011;1795;52.074;4.754;2022-12-18T06:03:51;42.20;;;23.42;;
3561;SDS011;1795;52.074;4.754;2022-12-18T06:06:20;43.15;;;23.67;;
3561;SDS011;1795;52.074;4.754;2022-12-18T06:08:51;43.13;;;24.08;;
3561;SDS011;1795;52.074;4.754;2022-12-18T06:11:21;42.10;;;23.33;;
3561;SDS011;1795;52.074;4.754;2022-12-18T06:13:51;43.35;;;25.08;;
3561;SDS011;1795;52.074;4.754;2022-12-18T06:16:24;45.42;;;23.60;;
3561;SDS011;1795;52.074;4.754;2022-12-18T06:18:52;40.40;;;22.13;;
3561;SDS011;1795;52.074;4.754;2022-12-18T06:21:20;42.00;;;21.30;;
3561;SDS011;1795;52.074;4.754;2022-12-18T06:23:48;40.30;;;22.00;;
3561;SDS011;1795;52.074;4.754;2022-12-18T06:26:16;42.70;;;22.58;;
3561;SDS011;1795;52.074;4.754;2022-12-18T06:28:54;43.88;;;22.33;;
3561;SDS011;1795;52.074;4.754;2022-12-18T06:31:22;40.33;;;21.67;;
3561;SDS011;1795;52.074;4.754;2022-12-18T06:33:51;40.10;;;23.17;;
3561;SDS011;1795;52.074;4.754;2022-12-18T06:36:20;37.35;;;21.80;;
3561;SDS011;1795;52.074;4.754;2022-12-18T06:38:48;36.57;;;20.17;;
3561;SDS011;1795;52.074;4.754;2022-12-18T06:41:17;44.63;;;23.45;;
3561;SDS011;1795;52.074;4.754;2022-12-18T06:43:47;38.70;;;21.88;;
3561;SDS011;1795;52.074;4.754;2022-12-18T06:46:16;40.55;;;22.58;;
3561;SDS011;1795;52.074;4.754;2022-12-18T06:48:46;39.00;;;22.40;;
3561;SDS011;1795;52.074;4.754;2022-12-18T06:51:19;37.40;;;20.52;;
3561;SDS011;1795;52.074;4.754;2022-12-18T06:53:48;33.72;;;20.67;;
3561;SDS011;1795;52.074;4.754;2022-12-18T06:56:16;38.55;;;22.25;;
3561;SDS011;1795;52.074;4.754;2022-12-18T06:58:45;35.42;;;21.25;;
3561;SDS011;1795;52.074;4.754;2022-12-18T07:01:13;39.88;;;22.83;;
3561;SDS011;1795;52.074;4.754;2022-12-18T07:03:42;36.90;;;21.83;;
3561;SDS011;1795;52.074;4.754;2022-12-18T07:06:14;39.65;;;22.25;;
3561;SDS011;1795;52.074;4.754;2022-12-18T07:08:44;34.00;;;21.80;;
3561;SDS011;1795;52.074;4.754;2022-12-18T07:11:13;38.37;;;23.33;;
3561;SDS011;1795;52.074;4.754;2022-12-18T07:13:42;35.93;;;22.67;;
3561;SDS011;1795;52.074;4.754;2022-12-18T07:16:11;38.58;;;22.73;;
3561;SDS011;1795;52.074;4.754;2022-12-18T07:18:49;40.50;;;24.05;;
3561;SDS011;1795;52.074;4.754;2022-12-18T07:21:17;36.95;;;23.13;;
3561;SDS011;1795;52.074;4.754;2022-12-18T07:23:46;39.63;;;24.02;;
3561;SDS011;1795;52.074;4.754;2022-12-18T07:26:16;36.25;;;22.90;;
3561;SDS011;1795;52.074;4.754;2022-12-18T07:28:45;38.28;;;22.35;;
3561;SDS011;1795;52.074;4.754;2022-12-18T07:31:14;37.85;;;23.70;;
3561;SDS011;1795;52.074;4.754;2022-12-18T07:33:43;35.20;;;23.55;;
3561;SDS011;1795;52.074;4.754;2022-12-18T07:36:13;37.38;;;22.85;;
3561;SDS011;1795;52.074;4.754;2022-12-18T07:38:41;36.78;;;21.70;;
3561;SDS011;1795;52.074;4.754;2022-12-18T07:41:10;35.85;;;22.27;;
3561;SDS011;1795;52.074;4.754;2022-12-18T07:43:40;34.80;;;22.80;;
3561;SDS011;1795;52.074;4.754;2022-12-18T07:46:10;35.40;;;21.98;;
3561;SDS011;1795;52.074;4.754;2022-12-18T07:48:40;37.22;;;23.90;;
3561;SDS011;1795;52.074;4.754;2022-12-18T07:51:16;32.88;;;22.50;;
3561;SDS011;1795;52.074;4.754;2022-12-18T07:53:45;34.53;;;22.10;;
3561;SDS011;1795;52.074;4.754;2022-12-18T07:56:17;35.25;;;21.67;;
3561;SDS011;1795;52.074;4.754;2022-12-18T07:58:55;31.83;;;21.88;;
3561;SDS011;1795;52.074;4.754;2022-12-18T08:01:24;32.63;;;20.60;;
3561;SDS011;1795;52.074;4.754;2022-12-18T08:03:52;34.13;;;22.40;;
3561;SDS011;1795;52.074;4.754;2022-12-18T08:06:21;32.70;;;22.20;;
3561;SDS011;1795;52.074;4.754;2022-12-18T08:08:50;33.58;;;22.48;;
3561;SDS011;1795;52.074;4.754;2022-12-18T08:11:19;31.45;;;22.67;;
3561;SDS011;1795;52.074;4.754;2022-12-18T08:13:47;33.30;;;23.60;;
3561;SDS011;1795;52.074;4.754;2022-12-18T08:16:15;35.85;;;23.63;;
3561;SDS011;1795;52.074;4.754;2022-12-18T08:18:45;37.15;;;23.77;;
3561;SDS011;1795;52.074;4.754;2022-12-18T08:21:15;31.90;;;21.20;;
3561;SDS011;1795;52.074;4.754;2022-12-18T08:23:48;32.57;;;21.63;;
3561;SDS011;1795;52.074;4.754;2022-12-18T08:26:17;30.80;;;20.50;;
3561;SDS011;1795;52.074;4.754;2022-12-18T08:28:47;28.65;;;20.55;;
3561;SDS011;1795;52.074;4.754;2022-12-18T08:31:16;29.95;;;20.55;;
3561;SDS011;1795;52.074;4.754;2022-12-18T08:33:44;29.08;;;20.63;;
3561;SDS011;1795;52.074;4.754;2022-12-18T08:36:12;27.05;;;19.83;;
3561;SDS011;1795;52.074;4.754;2022-12-18T08:38:40;31.23;;;20.80;;
3561;SDS011;1795;52.074;4.754;2022-12-18T08:41:13;30.30;;;20.20;;
3561;SDS011;1795;52.074;4.754;2022-12-18T08:43:42;28.25;;;19.90;;
3561;SDS011;1795;52.074;4.754;2022-12-18T08:46:27;29.83;;;19.48;;
3561;SDS011;1795;52.074;4.754;2022-12-18T08:49:01;28.23;;;19.67;;
3561;SDS011;1795;52.074;4.754;2022-12-18T08:51:29;30.60;;;19.50;;
3561;SDS011;1795;52.074;4.754;2022-12-18T08:53:57;31.38;;;19.45;;
3561;SDS011;1795;52.074;4.754;2022-12-18T08:56:26;30.30;;;19.58;;
3561;SDS011;1795;52.074;4.754;2022-12-18T08:58:56;25.95;;;18.83;;
3561;SDS011;1795;52.074;4.754;2022-12-18T09:01:24;28.03;;;18.27;;
3561;SDS011;1795;52.074;4.754;2022-12-18T09:03:52;28.60;;;19.35;;
3561;SDS011;1795;52.074;4.754;2022-12-18T09:06:20;26.63;;;18.33;;
3561;SDS011;1795;52.074;4.754;2022-12-18T09:08:50;29.08;;;18.55;;
3561;SDS011;1795;52.074;4.754;2022-12-18T09:11:19;25.52;;;17.30;;
3561;SDS011;1795;52.074;4.754;2022-12-18T09:13:50;27.13;;;18.30;;
3561;SDS011;1795;52.074;4.754;2022-12-18T09:16:20;26.95;;;18.45;;
3561;SDS011;1795;52.074;4.754;2022-12-18T09:18:56;29.77;;;18.48;;
3561;SDS011;1795;52.074;4.754;2022-12-18T09:21:26;27.15;;;17.90;;
3561;SDS011;1795;52.074;4.754;2022-12-18T09:23:56;24.15;;;17.38;;
3561;SDS011;1795;52.074;4.754;2022-12-18T09:26:24;25.58;;;16.50;;
3561;SDS011;1795;52.074;4.754;2022-12-18T09:28:54;25.98;;;17.08;;
3561;SDS011;1795;52.074;4.754;2022-12-18T09:31:23;26.88;;;17.65;;
3561;SDS011;1795;52.074;4.754;2022-12-18T09:33:51;28.15;;;17.10;;
3561;SDS011;1795;52.074;4.754;2022-12-18T09:36:19;28.00;;;17.55;;
3561;SDS011;1795;52.074;4.754;2022-12-18T09:38:47;27.77;;;17.63;;
3561;SDS011;1795;52.074;4.754;2022-12-18T09:41:22;25.02;;;16.77;;
3561;SDS011;1795;52.074;4.754;2022-12-18T09:44:11;26.17;;;17.10;;
3561;SDS011;1795;52.074;4.754;2022-12-18T09:46:46;27.70;;;18.40;;
3561;SDS011;1795;52.074;4.754;2022-12-18T09:49:20;26.80;;;17.98;;
3561;SDS011;1795;52.074;4.754;2022-12-18T09:51:51;24.42;;;16.63;;
3561;SDS011;1795;52.074;4.754;2022-12-18T09:54:24;24.90;;;16.20;;
3561;SDS011;1795;52.074;4.754;2022-12-18T09:56:54;24.55;;;16.95;;
3561;SDS011;1795;52.074;4.754;2022-12-18T09:59:24;27.23;;;17.98;;
3561;SDS011;1795;52.074;4.754;2022-12-18T10:01:57;29.08;;;17.70;;
3561;SDS011;1795;52.074;4.754;2022-12-18T10:04:25;28.02;;;17.13;;
3561;SDS011;1795;52.074;4.754;2022-12-18T10:06:59;27.80;;;17.10;;
3561;SDS011;1795;52.074;4.754;2022-12-18T10:09:36;26.73;;;17.63;;
3561;SDS011;1795;52.074;4.754;2022-12-18T10:12:08;28.97;;;17.60;;
3561;SDS011;1795;52.074;4.754;2022-12-18T10:14:47;29.63;;;18.60;;
3561;SDS011;1795;52.074;4.754;2022-12-18T10:17:24;30.20;;;18.52;;
3561;SDS011;1795;52.074;4.754;2022-12-18T10:20:01;27.35;;;18.23;;
3561;SDS011;1795;52.074;4.754;2022-12-18T10:22:36;26.95;;;17.40;;
3561;SDS011;1795;52.074;4.754;2022-12-18T10:25:15;29.17;;;18.27;;
3561;SDS011;1795;52.074;4.754;2022-12-18T10:27:50;30.27;;;20.10;;
3561;SDS011;1795;52.074;4.754;2022-12-18T10:30:22;25.37;;;17.30;;
3561;SDS011;1795;52.074;4.754;2022-12-18T10:32:52;28.60;;;18.08;;
3561;SDS011;1795;52.074;4.754;2022-12-18T10:35:22;29.60;;;18.27;;
3561;SDS011;1795;52.074;4.754;2022-12-18T10:38:01;27.70;;;17.33;;
3561;SDS011;1795;52.074;4.754;2022-12-18T10:40:35;28.20;;;18.70;;
3561;SDS011;1795;52.074;4.754;2022-12-18T10:43:19;26.08;;;16.13;;
3561;SDS011;1795;52.074;4.754;2022-12-18T10:46:04;25.73;;;17.90;;
3561;SDS011;1795;52.074;4.754;2022-12-18T10:48:51;26.23;;;18.70;;
3561;SDS011;1795;52.074;4.754;2022-12-18T10:51:22;29.30;;;17.73;;
3561;SDS011;1795;52.074;4.754;2022-12-18T10:53:53;26.38;;;17.50;;
3561;SDS011;1795;52.074;4.754;2022-12-18T10:56:24;25.77;;;17.60;;
3561;SDS011;1795;52.074;4.754;2022-12-18T10:58:59;27.98;;;18.15;;
3561;SDS011;1795;52.074;4.754;2022-12-18T11:01:32;27.48;;;18.75;;
3561;SDS011;1795;52.074;4.754;2022-12-18T11:04:16;29.02;;;18.85;;
3561;SDS011;1795;52.074;4.754;2022-12-18T11:06:56;29.75;;;17.90;;
3561;SDS011;1795;52.074;4.754;2022-12-18T11:09:26;27.40;;;18.35;;
3561;SDS011;1795;52.074;4.754;2022-12-18T11:11:56;29.95;;;19.02;;
3561;SDS011;1795;52.074;4.754;2022-12-18T11:14:26;30.90;;;18.80;;
3561;SDS011;1795;52.074;4.754;2022-12-18T11:16:57;28.00;;;17.55;;
3561;SDS011;1795;52.074;4.754;2022-12-18T11:19:51;26.77;;;18.42;;
3561;SDS011;1795;52.074;4.754;2022-12-18T11:22:21;25.77;;;18.98;;
3561;SDS011;1795;52.074;4.754;2022-12-18T11:24:53;28.97;;;18.90;;
3561;SDS011;1795;52.074;4.754;2022-12-18T11:27:47;30.30;;;20.08;;
3561;SDS011;1795;52.074;4.754;2022-12-18T11:30:20;28.15;;;19.85;;
3561;SDS011;1795;52.074;4.754;2022-12-18T11:32:51;27.92;;;19.50;;
3561;SDS011;1795;52.074;4.754;2022-12-18T11:35:25;31.58;;;20.92;;
3561;SDS011;1795;52.074;4.754;2022-12-18T11:38:04;27.40;;;19.90;;
3561;SDS011;1795;52.074;4.754;2022-12-18T11:40:38;29.23;;;19.73;;
3561;SDS011;1795;52.074;4.754;2022-12-18T11:43:09;28.92;;;20.77;;
3561;SDS011;1795;52.074;4.754;2022-12-18T11:45:43;29.65;;;19.20;;
3561;SDS011;1795;52.074;4.754;2022-12-18T11:48:18;30.60;;;20.50;;
3561;SDS011;1795;52.074;4.754;2022-12-18T11:50:51;29.25;;;19.80;;
3561;SDS011;1795;52.074;4.754;2022-12-18T11:53:21;33.40;;;22.17;;
3561;SDS011;1795;52.074;4.754;2022-12-18T11:56:00;32.50;;;21.02;;
3561;SDS011;1795;52.074;4.754;2022-12-18T11:58:39;34.42;;;22.27;;
3561;SDS011;1795;52.074;4.754;2022-12-18T12:01:20;32.07;;;21.90;;
3561;SDS011;1795;52.074;4.754;2022-12-18T12:04:14;31.10;;;20.65;;
3561;SDS011;1795;52.074;4.754;2022-12-18T12:06:53;30.97;;;20.87;;
3561;SDS011;1795;52.074;4.754;2022-12-18T12:09:34;27.40;;;19.27;;
3561;SDS011;1795;52.074;4.754;2022-12-18T12:12:13;32.70;;;19.50;;
3561;SDS011;1795;52.074;4.754;2022-12-18T12:14:56;29.83;;;18.30;;
3561;SDS011;1795;52.074;4.754;2022-12-18T12:17:34;31.17;;;18.70;;
3561;SDS011;1795;52.074;4.754;2022-12-18T12:20:11;29.92;;;18.90;;
3561;SDS011;1795;52.074;4.754;2022-12-18T12:22:48;29.88;;;19.67;;
3561;SDS011;1795;52.074;4.754;2022-12-18T12:25:27;27.15;;;18.83;;
3561;SDS011;1795;52.074;4.754;2022-12-18T12:28:06;30.15;;;20.33;;
3561;SDS011;1795;52.074;4.754;2022-12-18T12:30:50;26.70;;;18.20;;
3561;SDS011;1795;52.074;4.754;2022-12-18T12:33:30;27.95;;;18.17;;
3561;SDS011;1795;52.074;4.754;2022-12-18T12:36:08;27.88;;;18.52;;
3561;SDS011;1795;52.074;4.754;2022-12-18T12:38:46;27.20;;;18.48;;
3561;SDS011;1795;52.074;4.754;2022-12-18T12:41:18;25.70;;;17.13;;
3561;SDS011;1795;52.074;4.754;2022-12-18T12:44:07;28.02;;;18.42;;
3561;SDS011;1795;52.074;4.754;2022-12-18T12:46:41;25.90;;;17.02;;
3561;SDS011;1795;52.074;4.754;2022-12-18T12:49:12;26.08;;;18.08;;
3561;SDS011;1795;52.074;4.754;2022-12-18T12:51:44;25.73;;;17.38;;
3561;SDS011;1795;52.074;4.754;2022-12-18T12:54:19;27.10;;;17.33;;
3561;SDS011;1795;52.074;4.754;2022-12-18T12:56:50;27.02;;;19.23;;
3561;SDS011;1795;52.074;4.754;2022-12-18T12:59:26;28.50;;;18.90;;
3561;SDS011;1795;52.074;4.754;2022-12-18T13:01:59;25.63;;;17.75;;
3561;SDS011;1795;52.074;4.754;2022-12-18T13:04:34;27.25;;;18.27;;
3561;SDS011;1795;52.074;4.754;2022-12-18T13:07:10;27.58;;;18.60;;
3561;SDS011;1795;52.074;4.754;2022-12-18T13:12:51;25.60;;;17.83;;
3561;SDS011;1795;52.074;4.754;2022-12-18T13:15:26;29.23;;;19.05;;
3561;SDS011;1795;52.074;4.754;2022-12-18T13:18:05;26.05;;;19.05;;
3561;SDS011;1795;52.074;4.754;2022-12-18T13:20:47;25.00;;;17.93;;
3561;SDS011;1795;52.074;4.754;2022-12-18T13:23:28;29.02;;;19.35;;
3561;SDS011;1795;52.074;4.754;2022-12-18T13:25:59;28.75;;;18.05;;
3561;SDS011;1795;52.074;4.754;2022-12-18T13:28:59;26.58;;;19.00;;
3561;SDS011;1795;52.074;4.754;2022-12-18T13:34:47;26.42;;;18.75;;
3561;SDS011;1795;52.074;4.754;2022-12-18T13:43:30;25.23;;;17.55;;
3561;SDS011;1795;52.074;4.754;2022-12-18T13:46:20;23.80;;;17.38;;
3561;SDS011;1795;52.074;4.754;2022-12-18T13:48:51;27.65;;;17.85;;
3561;SDS011;1795;52.074;4.754;2022-12-18T13:51:22;26.17;;;18.20;;
3561;SDS011;1795;52.074;4.754;2022-12-18T13:53:52;26.35;;;18.75;;
3561;SDS011;1795;52.074;4.754;2022-12-18T13:56:22;25.48;;;17.55;;
3561;SDS011;1795;52.074;4.754;2022-12-18T13:59:11;28.23;;;18.83;;
3561;SDS011;1795;52.074;4.754;2022-12-18T14:01:42;26.75;;;18.90;;
3561;SDS011;1795;52.074;4.754;2022-12-18T14:04:12;25.60;;;18.90;;
3561;SDS011;1795;52.074;4.754;2022-12-18T14:06:45;26.90;;;19.77;;
3561;SDS011;1795;52.074;4.754;2022-12-18T14:09:15;27.02;;;18.90;;
3561;SDS011;1795;52.074;4.754;2022-12-18T14:11:47;31.15;;;20.90;;
3561;SDS011;1795;52.074;4.754;2022-12-18T14:14:18;34.03;;;24.15;;
3561;SDS011;1795;52.074;4.754;2022-12-18T14:16:49;42.10;;;28.02;;
3561;SDS011;1795;52.074;4.754;2022-12-18T14:19:18;46.90;;;30.30;;
3561;SDS011;1795;52.074;4.754;2022-12-18T14:21:46;46.80;;;30.83;;
3561;SDS011;1795;52.074;4.754;2022-12-18T14:24:16;44.28;;;30.50;;
3561;SDS011;1795;52.074;4.754;2022-12-18T14:26:45;44.17;;;29.70;;
3561;SDS011;1795;52.074;4.754;2022-12-18T14:29:24;43.40;;;29.25;;
3561;SDS011;1795;52.074;4.754;2022-12-18T14:32:03;41.53;;;28.52;;
3561;SDS011;1795;52.074;4.754;2022-12-18T14:34:43;35.97;;;25.67;;
3561;SDS011;1795;52.074;4.754;2022-12-18T14:37:12;32.60;;;22.40;;
3561;SDS011;1795;52.074;4.754;2022-12-18T14:39:51;34.85;;;23.50;;
3561;SDS011;1795;52.074;4.754;2022-12-18T14:42:24;33.70;;;23.05;;
3561;SDS011;1795;52.074;4.754;2022-12-18T14:48:07;29.05;;;21.52;;
3561;SDS011;1795;52.074;4.754;2022-12-18T14:50:43;29.35;;;20.88;;
3561;SDS011;1795;52.074;4.754;2022-12-18T14:53:19;31.25;;;20.98;;
3561;SDS011;1795;52.074;4.754;2022-12-18T14:55:50;27.67;;;20.45;;
3561;SDS011;1795;52.074;4.754;2022-12-18T14:58:18;29.02;;;19.40;;
3561;SDS011;1795;52.074;4.754;2022-12-18T15:00:47;30.00;;;19.92;;
3561;SDS011;1795;52.074;4.754;2022-12-18T15:03:17;27.17;;;19.23;;
3561;SDS011;1795;52.074;4.754;2022-12-18T15:05:48;29.00;;;19.00;;
3561;SDS011;1795;52.074;4.754;2022-12-18T15:08:29;31.70;;;19.27;;
3561;SDS011;1795;52.074;4.754;2022-12-18T15:11:02;26.48;;;18.17;;
3561;SDS011;1795;52.074;4.754;2022-12-18T15:13:38;26.57;;;18.83;;
3561;SDS011;1795;52.074;4.754;2022-12-18T15:16:08;29.02;;;19.25;;
3561;SDS011;1795;52.074;4.754;2022-12-18T15:18:40;31.30;;;20.63;;
3561;SDS011;1795;52.074;4.754;2022-12-18T15:21:11;28.00;;;20.00;;
3561;SDS011;1795;52.074;4.754;2022-12-18T15:23:48;25.67;;;17.75;;
3561;SDS011;1795;52.074;4.754;2022-12-18T15:26:17;26.50;;;19.30;;
3561;SDS011;1795;52.074;4.754;2022-12-18T15:28:47;26.97;;;18.93;;
3561;SDS011;1795;52.074;4.754;2022-12-18T15:31:22;29.08;;;17.95;;
3561;SDS011;1795;52.074;4.754;2022-12-18T15:34:11;26.98;;;17.10;;
3561;SDS011;1795;52.074;4.754;2022-12-18T15:36:41;28.98;;;18.90;;